Time;durP1;ratioP1;P1;durP2;ratioP2;P2;SDS_P1;SDS_P2;PMS_P1;PMS_P2;Temp;Humidity;BMP_temperature;BMP_pressure;BME280_temperature;BME280_humidity;BME280_pressure;Samples;Min_cycle;Max_cycle;Signal;HPM_P1;HPM_P2
2023/01/08 00:01:02;;;;;;;;;9.00;8.00;;;;;12.00;100.00;100155.50;5086720;28;46176;-79
2023/01/08 00:03:27;;;;;;;;;8.67;8.00;;;;;12.05;100.00;100170.06;5068158;28;45411;-80
2023/01/08 00:05:53;;;;;;;;;7.67;7.00;;;;;12.08;100.00;100172.34;5086967;28;45240;-80
2023/01/08 00:08:18;;;;;;;;;6.00;5.00;;;;;12.06;100.00;100158.41;5086609;28;45280;-79
2023/01/08 00:10:43;;;;;;;;;7.67;7.33;;;;;12.05;100.00;100151.41;5086958;28;46169;-80
2023/01/08 00:13:09;;;;;;;;;8.00;6.33;;;;;12.06;100.00;100148.56;5064673;28;45789;-80
2023/01/08 00:15:34;;;;;;;;;8.33;8.00;;;;;12.02;100.00;100141.16;5076026;28;45239;-80
2023/01/08 00:18:00;;;;;;;;;7.67;7.67;;;;;12.06;100.00;100137.91;5086010;28;45308;-80
2023/01/08 00:20:26;;;;;;;;;9.00;9.00;;;;;12.02;100.00;100135.81;5086050;28;46136;-80
2023/01/08 00:22:52;;;;;;;;;9.33;9.00;;;;;11.96;100.00;100124.97;5068300;28;45685;-80
2023/01/08 00:25:18;;;;;;;;;10.00;7.67;;;;;12.03;100.00;100134.84;5086507;28;45528;-78
2023/01/08 00:27:44;;;;;;;;;9.67;8.00;;;;;12.03;100.00;100122.31;5067087;28;46168;-80
2023/01/08 00:30:10;;;;;;;;;8.67;8.00;;;;;11.98;100.00;100122.91;5086351;28;45339;-80
2023/01/08 00:32:36;;;;;;;;;8.33;8.33;;;;;11.99;100.00;100119.25;5067836;28;45745;-80
2023/01/08 00:35:02;;;;;;;;;10.00;10.00;;;;;11.95;100.00;100115.34;5067064;28;45368;-80
2023/01/08 00:37:27;;;;;;;;;8.67;8.67;;;;;11.98;100.00;100128.22;5086613;28;45232;-81
2023/01/08 00:39:53;;;;;;;;;9.33;9.00;;;;;11.98;100.00;100128.22;5086572;28;45352;-80
2023/01/08 00:42:18;;;;;;;;;8.00;8.00;;;;;12.01;100.00;100132.38;5086384;28;45691;-80
2023/01/08 00:44:44;;;;;;;;;7.67;7.67;;;;;12.04;100.00;100137.28;5067677;28;45211;-80
2023/01/08 00:47:09;;;;;;;;;7.67;7.67;;;;;11.99;100.00;100113.91;5066690;28;45273;-80
2023/01/08 00:49:35;;;;;;;;;7.00;7.00;;;;;12.04;100.00;100128.47;5085095;28;46062;-80
2023/01/08 00:52:00;;;;;;;;;7.67;6.33;;;;;11.98;100.00;100120.25;5084573;28;45265;-80
2023/01/08 00:54:26;;;;;;;;;8.67;8.67;;;;;12.01;100.00;100108.41;5086458;28;45499;-80
2023/01/08 00:56:53;;;;;;;;;8.50;7.50;;;;;12.03;100.00;100111.66;5067517;28;47295;-80
2023/01/08 00:59:19;;;;;;;;;7.67;7.67;;;;;12.04;100.00;100115.16;5067139;28;47027;-80
2023/01/08 01:01:44;;;;;;;;;7.00;6.67;;;;;12.04;100.00;100117.81;5086287;28;45271;-80
2023/01/08 01:04:10;;;;;;;;;7.33;7.33;;;;;11.96;100.00;100105.50;5084905;28;45394;-79
2023/01/08 01:06:35;;;;;;;;;6.67;5.67;;;;;11.84;100.00;100083.94;5079341;27;45334;-80
2023/01/08 01:09:00;;;;;;;;;6.67;6.67;;;;;12.01;100.00;100111.06;5083876;28;45382;-80
2023/01/08 01:11:27;;;;;;;;;8.67;8.00;;;;;12.00;100.00;100107.56;5052454;28;45420;-80
2023/01/08 01:13:54;;;;;;;;;6.00;6.00;;;;;11.99;100.00;100108.59;5076111;28;45370;-79
2023/01/08 01:16:19;;;;;;;;;7.67;7.00;;;;;11.99;100.00;100111.25;5081132;28;45553;-79
2023/01/08 01:18:45;;;;;;;;;7.33;7.00;;;;;12.00;100.00;100114.72;5083929;28;45425;-80
2023/01/08 01:21:31;;;;;;;;;6.67;6.67;;;;;11.95;100.00;100093.22;5084889;28;45358;-80
2023/01/08 01:23:58;;;;;;;;;8.00;6.33;;;;;11.95;100.00;100091.38;5084780;28;45711;-80
2023/01/08 01:26:25;;;;;;;;;9.00;7.67;;;;;11.92;100.00;100080.28;5084059;28;45323;-80
2023/01/08 01:28:52;;;;;;;;;5.33;5.33;;;;;11.97;100.00;100099.97;5065735;28;47406;-80
2023/01/08 01:31:18;;;;;;;;;5.67;5.67;;;;;11.98;100.00;100098.13;5084680;28;45365;-81
2023/01/08 01:33:44;;;;;;;;;5.33;5.33;;;;;11.93;100.00;100096.06;5084548;28;45208;-80
2023/01/08 01:36:14;;;;;;;;;3.67;2.67;;;;;11.95;100.00;100091.38;5066475;28;46123;-80
2023/01/08 01:38:43;;;;;;;;;7.00;6.67;;;;;11.97;100.00;100084.00;5085717;28;45308;-80
2023/01/08 01:41:22;;;;;;;;;7.00;6.00;;;;;11.98;100.00;100087.47;5084173;28;45401;-80
2023/01/08 01:43:47;;;;;;;;;7.00;6.67;;;;;11.87;100.00;100068.41;5064644;28;45276;-80
2023/01/08 01:46:20;;;;;;;;;6.67;6.67;;;;;11.89;100.00;100094.81;5065838;28;46143;-80
2023/01/08 01:48:49;;;;;;;;;4.00;4.00;;;;;11.80;100.00;100091.53;5070542;28;45241;-79
2023/01/08 01:51:15;;;;;;;;;5.33;5.33;;;;;11.82;100.00;100099.31;5083843;28;45436;-79
2023/01/08 01:53:40;;;;;;;;;5.00;4.00;;;;;11.70;100.00;100091.06;5083046;28;45383;-81
2023/01/08 01:56:07;;;;;;;;;5.00;4.00;;;;;11.82;100.00;100109.97;5083760;28;45288;-80
2023/01/08 01:58:33;;;;;;;;;5.00;5.00;;;;;11.75;100.00;100109.91;5065414;28;46201;-79
2023/01/08 02:01:05;;;;;;;;;7.00;6.00;;;;;11.81;100.00;100111.78;5065329;28;45258;-80
2023/01/08 02:03:37;;;;;;;;;6.33;6.00;;;;;11.82;100.00;100113.41;5065261;28;45386;-80
2023/01/08 02:06:31;;;;;;;;;5.00;5.00;;;;;11.76;100.00;100100.09;5087220;27;45606;-80
2023/01/08 02:09:15;;;;;;;;;4.00;4.00;;;;;11.82;100.00;100115.28;5053553;28;47256;-80
2023/01/08 02:12:15;;;;;;;;;5.00;4.00;;;;;11.79;100.00;100113.00;5082163;28;45269;-80
2023/01/08 02:14:43;;;;;;;;;7.00;5.00;;;;;11.76;100.00;100110.75;5082984;28;45335;-80
2023/01/08 02:17:13;;;;;;;;;3.00;3.00;;;;;11.75;100.00;100112.56;5082874;28;45267;-79
2023/01/08 02:19:59;;;;;;;;;4.33;4.33;;;;;11.79;100.00;100111.16;5082180;28;45464;-80
2023/01/08 02:22:40;;;;;;;;;5.33;4.00;;;;;11.79;100.00;100113.81;5082383;28;45334;-80
2023/01/08 02:25:33;;;;;;;;;3.33;3.00;;;;;11.66;100.00;100095.94;5064267;28;45224;-80
2023/01/08 02:28:03;;;;;;;;;3.67;3.00;;;;;11.71;100.00;100106.81;5063012;28;45404;-80
2023/01/08 02:30:29;;;;;;;;;4.00;4.00;;;;;11.69;100.00;100106.22;5069539;28;45364;-81
2023/01/08 02:32:54;;;;;;;;;4.00;3.00;;;;;11.71;100.00;100108.69;5069718;28;45365;-80
2023/01/08 02:35:20;;;;;;;;;4.33;4.33;;;;;11.59;100.00;100095.09;5083495;28;45337;-79
2023/01/08 02:37:45;;;;;;;;;6.00;5.67;;;;;11.65;100.00;100096.16;5083031;28;45396;-80
2023/01/08 02:40:29;;;;;;;;;4.00;4.00;;;;;11.71;100.00;100108.69;5082632;28;45324;-80
2023/01/08 02:43:13;;;;;;;;;2.33;2.33;;;;;11.71;100.00;100101.50;5070530;28;45388;-80
2023/01/08 02:45:47;;;;;;;;;3.00;3.00;;;;;11.67;100.00;100097.59;5082634;28;45373;-80
2023/01/08 02:48:28;;;;;;;;;2.67;2.67;;;;;11.71;100.00;100101.50;5082189;28;45677;-80
2023/01/08 02:51:03;;;;;;;;;2.00;2.00;;;;;11.71;100.00;100114.00;5069120;28;45352;-81
2023/01/08 02:53:37;;;;;;;;;3.33;3.00;;;;;11.66;100.00;100111.09;5081993;28;45220;-80
2023/01/08 02:56:09;;;;;;;;;3.00;3.00;;;;;11.69;100.00;100102.72;5082886;28;45242;-80
2023/01/08 02:58:37;;;;;;;;;4.00;2.33;;;;;11.62;100.00;100092.03;5063781;28;46722;-80
2023/01/08 03:01:07;;;;;;;;;3.00;3.00;;;;;11.57;100.00;100089.13;5081685;28;46385;-81
2023/01/08 03:03:33;;;;;;;;;3.00;3.00;;;;;11.65;100.00;100104.13;5082549;28;45338;-81
2023/01/08 03:06:04;;;;;;;;;3.00;3.00;;;;;11.66;100.00;100103.09;5067228;27;45423;-80
2023/01/08 03:08:33;;;;;;;;;4.33;4.33;;;;;11.61;100.00;100099.19;5084584;27;45407;-80
2023/01/08 03:11:14;;;;;;;;;2.67;2.67;;;;;11.70;100.00;100096.38;5082015;28;45340;-80
2023/01/08 03:14:06;;;;;;;;;2.33;2.33;;;;;11.70;100.00;100102.53;5068024;28;45433;-80
2023/01/08 03:16:44;;;;;;;;;3.00;2.00;;;;;11.67;100.00;100092.25;5064070;28;45261;-80
2023/01/08 03:19:27;;;;;;;;;5.33;4.00;;;;;11.67;100.00;100088.78;5086417;28;45561;-80
2023/01/08 03:21:52;;;;;;;;;3.00;3.00;;;;;11.65;100.00;100089.00;5089417;28;45361;-81
2023/01/08 03:24:22;;;;;;;;;3.33;2.00;;;;;11.70;100.00;100099.84;5087820;28;45352;-81
2023/01/08 03:26:50;;;;;;;;;3.00;3.00;;;;;11.69;100.00;100084.91;5086336;28;45308;-80
2023/01/08 03:29:19;;;;;;;;;3.00;3.00;;;;;11.65;100.00;100078.34;5068608;28;47520;-80
2023/01/08 03:31:47;;;;;;;;;3.00;3.00;;;;;11.72;100.00;100075.69;5087277;27;45460;-79
2023/01/08 03:34:14;;;;;;;;;3.00;3.00;;;;;11.74;100.00;100079.00;5067071;28;46132;-81
2023/01/08 03:36:45;;;;;;;;;3.00;3.00;;;;;11.72;100.00;100081.84;5087859;28;45441;-81
2023/01/08 03:39:23;;;;;;;;;1.33;1.33;;;;;11.69;100.00;100084.91;5069606;28;45842;-80
2023/01/08 03:41:50;;;;;;;;;3.00;2.00;;;;;11.66;100.00;100085.31;5076389;28;45409;-80
2023/01/08 03:44:15;;;;;;;;;2.00;2.00;;;;;11.60;100.00;100073.63;5086895;28;45327;-80
2023/01/08 03:46:48;;;;;;;;;1.33;1.33;;;;;11.64;100.00;100071.34;5087937;28;45241;-80
2023/01/08 03:49:14;;;;;;;;;2.67;2.67;;;;;11.58;100.00;100067.66;5047373;28;45375;-80
2023/01/08 03:51:45;;;;;;;;;1.67;1.67;;;;;11.59;100.00;100060.50;5060445;28;46219;-80
2023/01/08 03:54:17;;;;;;;;;2.00;2.00;;;;;11.67;100.00;100072.81;5088616;28;45232;-80
2023/01/08 03:56:42;;;;;;;;;1.67;1.67;;;;;11.60;100.00;100054.16;5067943;28;45360;-80
2023/01/08 03:59:07;;;;;;;;;3.00;2.00;;;;;11.67;100.00;100059.50;5068457;28;46296;-80
2023/01/08 04:01:33;;;;;;;;;2.00;1.00;;;;;11.61;100.00;100061.09;5087366;28;46295;-80
2023/01/08 04:03:59;;;;;;;;;3.33;2.00;;;;;11.59;100.00;100055.19;5086866;28;45302;-80
2023/01/08 04:06:24;;;;;;;;;1.33;1.33;;;;;11.64;100.00;100062.56;5091458;27;45320;-80
2023/01/08 04:08:49;;;;;;;;;1.67;1.00;;;;;11.61;100.00;100063.75;5050589;28;47552;-80
2023/01/08 04:11:15;;;;;;;;;3.00;3.00;;;;;11.48;100.00;100044.06;5086124;28;46106;-80
2023/01/08 04:13:40;;;;;;;;;1.67;1.67;;;;;11.54;100.00;100049.63;5086461;28;45343;-80
2023/01/08 04:16:06;;;;;;;;;2.67;2.00;;;;;11.52;100.00;100043.69;5087220;28;45314;-79
2023/01/08 04:18:32;;;;;;;;;2.67;2.33;;;;;11.57;100.00;100043.91;5086793;28;45497;-79
2023/01/08 04:20:58;;;;;;;;;2.67;2.67;;;;;11.56;100.00;100040.44;5085301;28;45295;-80
2023/01/08 04:23:25;;;;;;;;;2.67;1.67;;;;;11.51;100.00;100034.03;5066579;28;45324;-80
2023/01/08 04:25:50;;;;;;;;;2.67;2.67;;;;;11.52;100.00;100025.84;5086244;28;45391;-80
2023/01/08 04:28:15;;;;;;;;;2.67;2.67;;;;;11.44;100.00;100002.91;5056573;28;46143;-80
2023/01/08 04:30:41;;;;;;;;;1.00;1.00;;;;;11.55;100.00;100012.16;5079479;28;46154;-80
2023/01/08 04:33:06;;;;;;;;;1.00;1.00;;;;;11.49;100.00;100003.13;5088070;28;45252;-80
2023/01/08 04:35:31;;;;;;;;;2.00;2.00;;;;;11.43;100.00;99976.50;5086063;28;45272;-80
2023/01/08 04:37:57;;;;;;;;;2.67;2.00;;;;;11.39;100.00;99972.59;5087027;28;45271;-80
2023/01/08 04:40:22;;;;;;;;;2.67;1.67;;;;;11.47;100.00;99985.72;5064814;28;46562;-79
2023/01/08 04:42:47;;;;;;;;;3.33;3.00;;;;;11.42;100.00;99962.38;5066294;28;45277;-80
2023/01/08 04:45:13;;;;;;;;;3.00;2.67;;;;;11.51;100.00;99989.63;5089229;28;45312;-80
2023/01/08 04:47:38;;;;;;;;;1.33;1.33;;;;;11.44;100.00;99981.59;5087681;28;45278;-80
2023/01/08 04:50:04;;;;;;;;;1.33;1.33;;;;;11.45;100.00;99983.28;5086851;28;46267;-80
2023/01/08 04:52:29;;;;;;;;;4.00;3.00;;;;;11.42;100.00;99981.00;5074306;28;46025;-80
2023/01/08 04:54:55;;;;;;;;;2.00;2.00;;;;;11.41;100.00;99975.88;5084717;28;45274;-79
2023/01/08 04:57:20;;;;;;;;;1.67;1.33;;;;;11.36;100.00;99969.31;5089225;28;45496;-80
2023/01/08 04:59:45;;;;;;;;;2.00;2.00;;;;;11.32;100.00;99972.56;5069535;28;47846;-79
2023/01/08 05:02:11;;;;;;;;;2.00;2.00;;;;;11.34;100.00;99981.16;5087655;28;45339;-80
2023/01/08 05:04:36;;;;;;;;;2.00;2.00;;;;;11.30;100.00;99977.25;5087202;28;45358;-80
2023/01/08 05:07:03;;;;;;;;;3.00;3.00;;;;;11.32;100.00;99973.38;5091449;27;45443;-80
2023/01/08 05:09:28;;;;;;;;;1.00;1.00;;;;;11.33;100.00;99982.19;5086243;28;46184;-78
2023/01/08 05:11:53;;;;;;;;;1.00;1.00;;;;;11.28;100.00;99953.50;5088328;28;44685;-80
2023/01/08 05:14:19;;;;;;;;;0.00;0.00;;;;;11.25;100.00;99943.25;5088573;28;45259;-79
2023/01/08 05:16:44;;;;;;;;;2.67;2.67;;;;;11.27;100.00;99948.38;5087466;28;45368;-79
2023/01/08 05:19:09;;;;;;;;;2.00;2.00;;;;;11.24;100.00;99939.81;5087979;28;45616;-80
2023/01/08 05:21:35;;;;;;;;;3.67;2.00;;;;;11.25;100.00;99943.25;5087519;28;45311;-80
2023/01/08 05:24:00;;;;;;;;;2.00;2.00;;;;;11.27;100.00;99943.91;5086048;28;45853;-81
2023/01/08 05:26:25;;;;;;;;;2.00;2.00;;;;;11.28;100.00;99961.50;5087007;28;45487;-80
2023/01/08 05:28:51;;;;;;;;;2.67;2.67;;;;;11.20;100.00;99937.72;5087090;28;46790;-81
2023/01/08 05:31:17;;;;;;;;;4.33;3.00;;;;;11.14;100.00;99934.03;5087999;28;45382;-79
2023/01/08 05:33:42;;;;;;;;;2.00;1.33;;;;;11.18;100.00;99950.41;5087471;28;45364;-79
2023/01/08 05:36:10;;;;;;;;;2.00;2.00;;;;;11.24;100.00;99963.75;5080342;28;45460;-80
2023/01/08 05:38:36;;;;;;;;;3.00;2.00;;;;;11.23;100.00;99969.25;5066267;28;45280;-80
2023/01/08 05:41:02;;;;;;;;;0.00;0.00;;;;;11.21;100.00;99963.31;5076626;28;45292;-80
2023/01/08 05:43:28;;;;;;;;;1.67;1.67;;;;;11.10;100.00;99943.41;5086567;28;45781;-80
2023/01/08 05:45:53;;;;;;;;;2.67;2.67;;;;;11.05;100.00;99943.19;5084569;28;45479;-81
2023/01/08 05:48:18;;;;;;;;;2.00;2.00;;;;;10.93;100.00;99924.31;5083696;28;45393;-81
2023/01/08 05:50:44;;;;;;;;;1.00;1.00;;;;;10.94;100.00;99940.06;5064598;28;45288;-80
2023/01/08 05:53:09;;;;;;;;;3.00;2.00;;;;;10.95;100.00;99940.88;5063932;28;45842;-81
2023/01/08 05:55:35;;;;;;;;;3.33;2.00;;;;;10.90;100.00;99938.00;5081360;28;45308;-80
2023/01/08 05:58:01;;;;;;;;;1.00;1.00;;;;;10.88;100.00;99937.34;5082448;28;45503;-80
2023/01/08 06:00:27;;;;;;;;;1.00;1.00;;;;;10.90;100.00;99944.16;5081943;28;45363;-80
2023/01/08 06:02:52;;;;;;;;;3.00;3.00;;;;;10.81;100.00;99930.16;5085270;28;45225;-80
2023/01/08 06:05:17;;;;;;;;;1.33;1.33;;;;;10.91;100.00;99952.91;5082238;28;45253;-80
2023/01/08 06:07:43;;;;;;;;;2.67;2.00;;;;;10.90;100.00;99964.59;5085783;27;45284;-80
2023/01/08 06:10:08;;;;;;;;;1.00;1.00;;;;;10.90;100.00;99996.47;5076635;28;45327;-81
2023/01/08 06:12:34;;;;;;;;;1.67;1.00;;;;;10.86;100.00;100012.81;5075304;28;45260;-80
2023/01/08 06:14:59;;;;;;;;;0.00;0.00;;;;;10.73;100.00;99988.81;5084884;28;45240;-81
2023/01/08 06:17:24;;;;;;;;;3.33;0.33;;;;;10.69;100.00;100001.66;5086077;28;45493;-81
2023/01/08 06:19:50;;;;;;;;;0.00;0.00;;;;;10.60;100.00;99994.84;5084674;28;45369;-81
2023/01/08 06:22:15;;;;;;;;;0.00;0.00;;;;;10.57;100.00;100000.53;5064678;28;45923;-80
2023/01/08 06:24:40;;;;;;;;;0.00;0.00;;;;;10.42;100.00;99980.16;5084313;28;45536;-83
2023/01/08 06:27:06;;;;;;;;;2.00;0.00;;;;;10.28;100.00;99983.72;5066923;28;47170;-82
2023/01/08 06:29:31;;;;;;;;;0.00;0.00;;;;;10.20;100.00;99982.84;5053362;28;45257;-83
2023/01/08 06:31:56;;;;;;;;;0.00;0.00;;;;;10.18;100.00;99984.84;5085215;28;45366;-82
2023/01/08 06:34:22;;;;;;;;;0.00;0.00;;;;;10.09;100.00;99965.56;5065966;28;46161;-82
2023/01/08 06:36:47;;;;;;;;;0.00;0.00;;;;;10.05;100.00;99948.38;5089892;28;45373;-82
2023/01/08 06:39:12;;;;;;;;;0.00;0.00;;;;;9.94;100.00;99951.56;5075390;28;45240;-82
2023/01/08 06:41:38;;;;;;;;;0.00;0.00;;;;;9.91;100.00;99968.66;5066993;28;45506;-82
2023/01/08 06:44:06;;;;;;;;;0.00;0.00;;;;;9.73;100.00;99956.66;5081427;28;45405;-83
2023/01/08 06:46:37;;;;;;;;;0.00;0.00;;;;;9.72;100.00;99976.25;5057453;28;47435;-83
2023/01/08 06:49:02;;;;;;;;;1.00;0.00;;;;;9.75;100.00;99990.97;5081099;28;45398;-82
2023/01/08 06:51:27;;;;;;;;;0.00;0.00;;;;;9.69;100.00;99994.34;5083618;28;45427;-82
2023/01/08 06:53:53;;;;;;;;;0.00;0.00;;;;;9.58;100.00;99982.41;5083689;28;45242;-83
2023/01/08 06:56:18;;;;;;;;;0.00;0.00;;;;;9.53;100.00;99984.78;5080762;28;45497;-83
2023/01/08 06:58:43;;;;;;;;;1.00;0.00;;;;;9.54;100.00;99995.22;5080436;28;45464;-83
2023/01/08 07:01:13;;;;;;;;;0.00;0.00;;;;;9.43;100.00;99979.78;5062960;28;45288;-82
2023/01/08 07:03:38;;;;;;;;;0.00;0.00;;;;;9.38;100.00;99960.94;5061737;28;46291;-82
2023/01/08 07:06:04;;;;;;;;;0.00;0.00;;;;;9.55;100.00;99990.75;5083448;27;46123;-83
2023/01/08 07:08:29;;;;;;;;;0.00;0.00;;;;;9.53;100.00;99984.78;5067421;28;45278;-83
2023/01/08 07:10:54;;;;;;;;;0.33;0.33;;;;;9.54;100.00;99983.78;5081728;28;45285;-84
2023/01/08 07:13:22;;;;;;;;;0.00;0.00;;;;;9.58;100.00;99990.38;5063827;28;47207;-83
2023/01/08 07:15:48;;;;;;;;;0.67;0.67;;;;;9.62;100.00;99994.28;5076029;28;45916;-85
2023/01/08 07:18:13;;;;;;;;;0.00;0.00;;;;;9.62;100.00;99991.63;5062598;28;46311;-85
2023/01/08 07:20:39;;;;;;;;;0.00;0.00;;;;;9.68;100.00;99984.75;5061214;27;45470;-85
2023/01/08 07:23:06;;;;;;;;;0.00;0.00;;;;;9.42;100.00;99948.94;5082454;27;45392;-80
2023/01/08 07:25:32;;;;;;;;;2.00;0.00;;;;;9.58;100.00;99969.94;5061594;28;48274;-82
2023/01/08 07:27:59;;;;;;;;;0.33;0.33;;;;;9.70;100.00;99988.84;5061488;28;45354;-82
2023/01/08 07:30:25;;;;;;;;;0.33;0.33;;;;;9.66;100.00;99982.28;5079818;28;45470;-81
2023/01/08 07:32:50;;;;;;;;;0.33;0.33;;;;;9.63;100.00;99966.75;5079301;28;45474;-81
2023/01/08 07:35:15;;;;;;;;;1.00;1.00;;;;;9.72;100.00;99981.53;5061196;28;46633;-81
2023/01/08 07:37:42;;;;;;;;;1.00;1.00;;;;;9.77;100.00;99983.66;5079828;28;45162;-80
2023/01/08 07:40:09;;;;;;;;;0.00;0.00;;;;;9.70;100.00;99978.25;5061387;28;45555;-84
2023/01/08 07:42:35;;;;;;;;;0.00;0.00;;;;;9.75;100.00;99988.31;5082678;28;45621;-83
2023/01/08 07:45:00;;;;;;;;;1.00;1.00;;;;;9.73;100.00;99985.84;5084515;28;45469;-84
2023/01/08 07:47:25;;;;;;;;;1.00;1.00;;;;;9.73;100.00;99979.72;5067902;28;45668;-84
2023/01/08 07:49:51;;;;;;;;;1.00;1.00;;;;;9.79;100.00;99986.91;5080929;27;45307;-84
2023/01/08 07:52:16;;;;;;;;;0.00;0.00;;;;;9.72;100.00;99970.09;5076521;28;45651;-83
2023/01/08 07:54:41;;;;;;;;;1.00;1.00;;;;;9.85;100.00;99985.38;5088881;28;46330;-84
2023/01/08 07:57:06;;;;;;;;;1.00;0.00;;;;;9.85;100.00;99985.38;5089149;28;45300;-81
2023/01/08 07:59:32;;;;;;;;;2.00;2.00;;;;;9.84;100.00;99976.56;5084082;28;45283;-84
2023/01/08 08:01:57;;;;;;;;;0.00;0.00;;;;;9.87;100.00;99988.63;5089431;28;45390;-84
2023/01/08 08:04:23;;;;;;;;;1.00;1.00;;;;;9.79;100.00;99967.53;5083003;28;46285;-82
2023/01/08 08:06:49;;;;;;;;;0.00;0.00;;;;;9.91;100.00;99989.09;5066774;28;45672;-83
2023/01/08 08:09:14;;;;;;;;;0.00;0.00;;;;;9.84;100.00;99967.78;5062861;28;45298;-81
2023/01/08 08:11:40;;;;;;;;;0.00;0.00;;;;;9.91;100.00;99978.47;5081223;28;45335;-81
2023/01/08 08:14:06;;;;;;;;;0.00;0.00;;;;;9.90;100.00;99976.81;5070085;27;47474;-82
2023/01/08 08:16:31;;;;;;;;;0.00;0.00;;;;;9.88;100.00;99970.88;5085704;27;45338;-82
2023/01/08 08:18:58;;;;;;;;;0.67;0.67;;;;;9.84;100.00;99965.13;5071868;28;45899;-81
2023/01/08 08:21:23;;;;;;;;;0.00;0.00;;;;;9.93;100.00;99977.28;5065767;28;46056;-82
2023/01/08 08:23:48;;;;;;;;;0.00;0.00;;;;;9.89;100.00;99970.69;5082673;28;45327;-80
2023/01/08 08:26:14;;;;;;;;;0.00;0.00;;;;;9.85;100.00;99949.00;5082606;28;45296;-81
2023/01/08 08:28:39;;;;;;;;;0.00;0.00;;;;;9.94;100.00;99955.00;5084543;28;45646;-81
2023/01/08 08:31:04;;;;;;;;;0.67;0.67;;;;;10.02;100.00;99963.84;5079857;28;45288;-79
2023/01/08 08:33:30;;;;;;;;;1.33;0.67;;;;;9.95;100.00;99943.41;5061628;27;45604;-79
2023/01/08 08:35:55;;;;;;;;;0.00;0.00;;;;;10.04;100.00;99961.84;5062219;28;45292;-79
2023/01/08 08:38:21;;;;;;;;;1.33;1.00;;;;;10.01;100.00;99952.44;5062396;28;45390;-79
2023/01/08 08:40:46;;;;;;;;;1.00;1.00;;;;;10.03;100.00;99952.25;5061940;28;45280;-78
2023/01/08 08:43:11;;;;;;;;;1.00;1.00;;;;;10.09;100.00;99960.25;5061678;28;45293;-79
2023/01/08 08:45:37;;;;;;;;;1.00;0.00;;;;;10.13;100.00;99954.56;5061999;28;45368;-81
2023/01/08 08:48:05;;;;;;;;;0.00;0.00;;;;;10.20;100.00;99950.13;5061979;28;45328;-80
2023/01/08 08:50:31;;;;;;;;;2.00;1.00;;;;;10.20;100.00;99935.03;5061905;28;45344;-79
2023/01/08 08:53:01;;;;;;;;;0.00;0.00;;;;;10.27;100.00;99942.25;5061852;28;46311;-80
2023/01/08 08:55:27;;;;;;;;;1.33;1.00;;;;;10.28;100.00;99933.25;5061649;28;45481;-80
2023/01/08 08:57:53;;;;;;;;;0.00;0.00;;;;;10.32;100.00;99935.34;5043843;28;45396;-80
2023/01/08 09:00:18;;;;;;;;;0.00;0.00;;;;;10.35;100.00;99940.25;5058344;28;45336;-80
2023/01/08 09:02:44;;;;;;;;;0.00;0.00;;;;;10.31;100.00;99915.09;5053146;28;45439;-77
2023/01/08 09:05:10;;;;;;;;;1.33;0.00;;;;;10.38;100.00;99925.78;5039272;28;45712;-80
2023/01/08 09:07:35;;;;;;;;;1.00;1.00;;;;;10.33;100.00;99912.25;5043359;28;45533;-79
2023/01/08 09:10:01;;;;;;;;;0.00;0.00;;;;;10.43;100.00;99931.34;5042527;28;46123;-80
2023/01/08 09:12:26;;;;;;;;;0.67;0.00;;;;;10.37;100.00;99916.16;5060671;28;46326;-79
2023/01/08 09:14:53;;;;;;;;;2.00;0.00;;;;;10.44;100.00;99926.81;5042644;28;46213;-80
2023/01/08 09:17:20;;;;;;;;;0.00;0.00;;;;;10.35;100.00;99920.84;5060720;28;45309;-80
2023/01/08 09:19:45;;;;;;;;;0.00;0.00;;;;;10.35;100.00;99929.63;5058319;28;45366;-81
2023/01/08 09:22:11;;;;;;;;;0.33;0.00;;;;;10.27;100.00;99924.47;5060852;28;46221;-78
2023/01/08 09:24:36;;;;;;;;;0.00;0.00;;;;;10.25;100.00;99923.00;5061059;28;45273;-81
2023/01/08 09:27:01;;;;;;;;;0.67;0.67;;;;;10.23;100.00;99932.00;5042905;28;45324;-80
2023/01/08 09:29:27;;;;;;;;;1.00;0.00;;;;;10.12;100.00;99913.94;5059595;28;45274;-80
2023/01/08 09:31:52;;;;;;;;;0.00;0.00;;;;;10.18;100.00;99917.66;5048617;28;47344;-80
2023/01/08 09:34:17;;;;;;;;;2.00;2.00;;;;;10.10;100.00;99922.09;5081046;28;45334;-80
2023/01/08 09:36:43;;;;;;;;;0.00;0.00;;;;;10.06;100.00;99920.00;5063348;28;45379;-79
2023/01/08 09:39:09;;;;;;;;;0.33;0.33;;;;;10.02;100.00;99905.47;5081411;28;45200;-80
2023/01/08 09:41:39;;;;;;;;;0.00;0.00;;;;;10.12;100.00;99923.72;5082003;28;45313;-80
2023/01/08 09:44:06;;;;;;;;;1.00;1.00;;;;;10.06;100.00;99915.50;5081138;28;45462;-80
2023/01/08 09:46:34;;;;;;;;;0.00;0.00;;;;;10.10;100.00;99919.44;5083732;28;45397;-81
2023/01/08 09:49:06;;;;;;;;;0.67;0.00;;;;;10.17;100.00;99929.28;5081188;28;45566;-80
2023/01/08 09:51:36;;;;;;;;;0.00;0.00;;;;;10.26;100.00;99929.97;5081635;28;45512;-79
2023/01/08 09:54:04;;;;;;;;;4.00;0.33;;;;;10.28;100.00;99926.13;5063224;28;45348;-79
2023/01/08 09:56:33;;;;;;;;;0.00;0.00;;;;;10.35;100.00;99924.31;5080042;28;45232;-81
2023/01/08 09:59:00;;;;;;;;;0.33;0.00;;;;;10.37;100.00;99921.47;5081069;28;46059;-78
2023/01/08 10:01:33;;;;;;;;;0.00;0.00;;;;;10.41;100.00;99917.41;5081497;28;46290;-79
2023/01/08 10:04:05;;;;;;;;;0.00;0.00;;;;;10.56;100.00;99922.66;5081177;28;45345;-79
2023/01/08 10:06:31;;;;;;;;;0.00;0.00;;;;;10.58;100.00;99911.84;5062780;28;45300;-79
2023/01/08 10:08:57;;;;;;;;;0.67;0.00;;;;;10.64;100.00;99920.88;5081159;28;45284;-79
2023/01/08 10:11:25;;;;;;;;;0.33;0.33;;;;;10.73;100.00;99920.53;5080562;28;45338;-77
2023/01/08 10:13:53;;;;;;;;;0.67;0.67;;;;;10.84;100.00;99936.94;5081085;28;45500;-81
2023/01/08 10:16:27;;;;;;;;;0.67;0.67;;;;;10.91;100.00;99934.31;5081887;28;45489;-81
2023/01/08 10:18:52;;;;;;;;;1.00;1.00;;;;;10.90;100.00;99922.88;5063884;28;45368;-81
2023/01/08 10:21:18;;;;;;;;;1.00;1.00;;;;;10.94;100.00;99918.81;5081648;28;45423;-81
2023/01/08 10:23:49;;;;;;;;;1.00;1.00;;;;;11.05;100.00;99935.22;5081262;28;45364;-82
2023/01/08 10:26:26;;;;;;;;;1.67;1.00;;;;;11.11;100.00;99919.28;5062691;28;45415;-81
2023/01/08 10:28:51;;;;;;;;;0.33;0.33;;;;;11.15;100.00;99925.03;5074214;28;45382;-78
2023/01/08 10:31:16;;;;;;;;;1.00;0.00;;;;;11.20;100.00;99922.56;5051632;28;48232;-81
2023/01/08 10:33:46;;;;;;;;;1.00;1.00;;;;;11.21;100.00;99924.25;5070551;28;45801;-81
2023/01/08 10:36:16;;;;;;;;;0.00;0.00;;;;;11.14;100.00;99912.75;5074593;27;45446;-82
2023/01/08 10:38:48;;;;;;;;;1.00;0.33;;;;;11.16;100.00;99915.22;5080580;28;45339;-81
2023/01/08 10:41:14;;;;;;;;;0.67;0.00;;;;;11.10;100.00;99898.19;5080167;28;45326;-78
2023/01/08 10:43:53;;;;;;;;;0.33;0.00;;;;;11.20;100.00;99908.47;5080381;28;45458;-81
2023/01/08 10:46:22;;;;;;;;;2.67;2.00;;;;;11.28;100.00;99912.81;5063541;28;45393;-78
2023/01/08 10:48:52;;;;;;;;;1.00;1.00;;;;;11.29;100.00;99903.81;5083063;28;45384;-81
2023/01/08 10:51:22;;;;;;;;;0.00;0.00;;;;;11.32;100.00;99896.22;5080081;28;45338;-79
2023/01/08 10:53:48;;;;;;;;;2.00;1.00;;;;;11.47;100.00;99904.03;5080606;28;45499;-82
2023/01/08 10:56:22;;;;;;;;;1.33;0.67;;;;;11.53;100.00;99896.28;5082306;28;45204;-81
2023/01/08 10:58:48;;;;;;;;;1.67;0.67;;;;;11.58;100.00;99888.50;5082728;28;45462;-81
2023/01/08 11:01:30;;;;;;;;;2.00;1.00;;;;;11.53;100.00;99873.19;5085604;28;46215;-81
2023/01/08 11:04:04;;;;;;;;;2.00;1.00;;;;;11.58;100.00;99885.84;5073374;28;45320;-81
2023/01/08 11:06:33;;;;;;;;;1.00;1.00;;;;;11.47;100.00;99850.81;5087266;27;45359;-81
2023/01/08 11:09:00;;;;;;;;;2.67;0.00;;;;;11.61;100.00;99864.16;5061700;28;46298;-77
2023/01/08 11:11:34;;;;;;;;;2.00;2.00;;;;;11.61;100.00;99862.31;5062172;28;47275;-82
2023/01/08 11:14:03;;;;;;;;;2.00;2.00;;;;;11.53;100.00;99862.53;5081094;28;45414;-78
2023/01/08 11:16:38;;;;;;;;;1.00;0.67;;;;;11.57;100.00;99865.59;5062679;28;45379;-79
2023/01/08 11:19:14;;;;;;;;;2.00;2.00;;;;;11.45;100.00;99839.59;5080650;28;45402;-81
2023/01/08 11:21:39;;;;;;;;;2.33;2.00;;;;;11.52;100.00;99846.78;5080875;28;46747;-81
2023/01/08 11:24:22;;;;;;;;;3.00;3.00;;;;;11.45;100.00;99836.94;5080175;28;45375;-77
2023/01/08 11:26:52;;;;;;;;;2.00;1.00;;;;;11.43;100.00;99819.53;5080959;28;45331;-80